Terminal Aerodrome Forecast
Issued by NWS

Home | Current Version | Previous Version | Text Only | Print | Product List | Glossary Off
Versions: 1 2 3 4 5 6 7 8 9 10 11 12 13 14

000
FTUS42 KMHX 251727
TAFOAJ
TAF
KOAJ 251727Z 2518/2618 20009G17KT P6SM BKN045
     FM252300 18007KT P6SM SKC
     FM260900 VRB03KT 5SM BR SKC
     FM261200 16007KT P6SM SCT030
      AMD LTD TO CLD VIS AND WIND=

USA.gov is the U.S. government's official web portal to all federal, state and local government web resources and services.